Time;durP1;ratioP1;P1;durP2;ratioP2;P2;SDS_P1;SDS_P2;PMS_P1;PMS_P2;Temp;Humidity;BMP_temperature;BMP_pressure;BME280_temperature;BME280_humidity;BME280_pressure;Samples;Min_cycle;Max_cycle;Signal;HPM_P1;HPM_P2
2022/08/03 00:00:00;;;;;;;7.68;4.30;;;18.60;99.90;;;;;;5038043;28;20049;-69
2022/08/03 00:02:29;;;;;;;9.27;4.38;;;18.70;99.90;;;;;;5042962;28;20440;-70
2022/08/03 00:04:54;;;;;;;8.65;3.78;;;18.60;99.90;;;;;;5038468;28;20041;-68
2022/08/03 00:07:20;;;;;;;9.95;4.30;;;18.60;99.90;;;;;;5033663;28;20509;-69
2022/08/03 00:09:46;;;;;;;10.80;4.30;;;18.60;99.90;;;;;;5043583;28;20034;-68
2022/08/03 00:12:11;;;;;;;10.18;4.03;;;18.60;99.90;;;;;;5042272;28;20095;-70
2022/08/03 00:14:37;;;;;;;9.90;4.03;;;18.70;99.90;;;;;;5039579;28;20037;-71
2022/08/03 00:17:03;;;;;;;8.98;4.07;;;18.90;99.90;;;;;;5039115;28;20127;-71
2022/08/03 00:19:30;;;;;;;11.35;4.20;;;18.70;99.90;;;;;;5038437;28;20163;-70
2022/08/03 00:21:56;;;;;;;8.90;4.22;;;18.70;99.90;;;;;;5037956;28;20041;-71
2022/08/03 00:24:21;;;;;;;10.00;3.88;;;18.70;99.90;;;;;;5036380;28;20059;-71
2022/08/03 00:26:50;;;;;;;10.15;3.80;;;18.70;99.90;;;;;;5039965;28;20037;-70
2022/08/03 00:29:16;;;;;;;15.35;4.25;;;18.70;99.90;;;;;;5034025;28;20037;-70
2022/08/03 00:31:42;;;;;;;9.60;4.78;;;18.60;99.90;;;;;;5041713;28;20063;-70
2022/08/03 00:34:07;;;;;;;10.80;4.13;;;18.70;99.90;;;;;;5037130;28;20049;-71
2022/08/03 00:36:33;;;;;;;10.32;4.50;;;18.60;99.90;;;;;;5040497;28;20488;-71
2022/08/03 00:38:59;;;;;;;11.38;4.45;;;18.60;99.90;;;;;;5041007;28;20045;-71
2022/08/03 00:41:24;;;;;;;10.88;4.18;;;18.60;99.90;;;;;;5041362;28;20047;-70
2022/08/03 00:43:50;;;;;;;11.23;4.05;;;18.60;99.90;;;;;;5039780;28;20128;-71
2022/08/03 00:46:16;;;;;;;10.75;4.13;;;18.50;99.90;;;;;;5041628;28;20443;-71
2022/08/03 00:48:41;;;;;;;10.50;3.85;;;18.50;99.90;;;;;;5039097;28;20064;-71
2022/08/03 00:51:07;;;;;;;8.40;4.32;;;18.50;99.90;;;;;;5040670;28;20076;-70
2022/08/03 00:53:35;;;;;;;9.77;3.97;;;18.50;99.90;;;;;;5039543;28;20040;-70
2022/08/03 00:56:00;;;;;;;7.53;3.72;;;18.50;99.90;;;;;;5039237;28;20089;-71
2022/08/03 00:58:26;;;;;;;10.35;3.90;;;18.40;99.90;;;;;;5038905;28;20077;-70
2022/08/03 01:00:51;;;;;;;11.23;4.10;;;18.50;99.90;;;;;;5040080;28;20037;-72
2022/08/03 01:03:17;;;;;;;9.57;4.55;;;18.50;99.90;;;;;;5038403;28;20400;-71
2022/08/03 01:05:56;;;;;;;7.72;3.92;;;18.50;99.90;;;;;;5042899;28;20044;-70
2022/08/03 01:08:50;;;;;;;9.80;4.18;;;18.40;99.90;;;;;;5039704;28;20037;-71
2022/08/03 01:11:28;;;;;;;12.55;4.05;;;18.40;99.90;;;;;;5035219;28;20386;-71
2022/08/03 01:14:14;;;;;;;11.48;3.88;;;18.40;99.90;;;;;;5037065;28;20056;-71
2022/08/03 01:17:15;;;;;;;9.55;4.05;;;18.40;99.90;;;;;;5033952;28;20073;-70
2022/08/03 01:19:59;;;;;;;9.15;3.80;;;18.40;99.90;;;;;;5035317;28;20497;-71
2022/08/03 01:22:58;;;;;;;9.27;3.60;;;18.30;99.90;;;;;;5042665;28;20037;-70
2022/08/03 01:25:33;;;;;;;7.32;3.20;;;18.30;99.90;;;;;;5042091;28;20412;-71
2022/08/03 01:28:41;;;;;;;8.55;3.67;;;18.40;99.90;;;;;;5042577;28;20037;-71
2022/08/03 01:31:10;;;;;;;10.20;3.90;;;18.50;99.90;;;;;;5033534;28;20049;-71
2022/08/03 01:33:40;;;;;;;9.93;3.90;;;18.50;99.90;;;;;;5038082;28;20049;-71
2022/08/03 01:36:14;;;;;;;14.02;4.35;;;18.50;99.90;;;;;;5039103;28;20051;-71
2022/08/03 01:39:08;;;;;;;10.27;3.90;;;18.40;99.90;;;;;;5038226;28;20045;-71
2022/08/03 01:41:41;;;;;;;9.93;3.40;;;18.50;99.90;;;;;;5036329;28;20057;-71
2022/08/03 01:44:10;;;;;;;8.90;3.42;;;18.40;99.90;;;;;;5039889;28;20044;-71
2022/08/03 01:46:37;;;;;;;9.75;3.72;;;18.40;99.90;;;;;;5040852;28;20528;-71
2022/08/03 01:49:08;;;;;;;8.65;3.22;;;18.40;99.90;;;;;;5044804;28;20555;-71
2022/08/03 01:51:35;;;;;;;8.13;3.70;;;18.40;99.90;;;;;;5037579;28;20053;-71
2022/08/03 01:54:03;;;;;;;11.88;3.80;;;18.40;99.90;;;;;;5045608;28;20067;-70
2022/08/03 01:56:30;;;;;;;10.95;3.88;;;18.40;99.90;;;;;;5042710;28;20049;-71
2022/08/03 01:58:59;;;;;;;12.48;4.10;;;18.30;99.90;;;;;;5038784;28;20867;-71
2022/08/03 02:01:27;;;;;;;6.82;3.53;;;18.40;99.90;;;;;;5041928;28;20163;-71
2022/08/03 02:03:55;;;;;;;9.93;3.83;;;18.50;99.90;;;;;;5043472;28;20037;-71
2022/08/03 02:06:22;;;;;;;10.32;3.58;;;18.30;99.90;;;;;;5041323;28;20416;-71
2022/08/03 02:08:49;;;;;;;12.07;3.75;;;18.20;99.90;;;;;;5043338;28;20045;-70
2022/08/03 02:11:15;;;;;;;9.95;3.75;;;18.30;99.90;;;;;;5043626;28;20045;-71
2022/08/03 02:13:42;;;;;;;10.68;3.65;;;18.30;99.90;;;;;;5041300;28;20041;-72
2022/08/03 02:16:10;;;;;;;9.80;3.75;;;18.30;99.90;;;;;;5043200;28;20045;-70
2022/08/03 02:18:38;;;;;;;12.80;4.28;;;18.30;99.90;;;;;;5044903;28;20057;-70
2022/08/03 02:21:06;;;;;;;11.15;3.63;;;18.20;99.90;;;;;;5040354;28;20474;-69
2022/08/03 02:23:32;;;;;;;13.32;3.88;;;18.30;99.90;;;;;;5045142;28;20460;-69
2022/08/03 02:26:01;;;;;;;9.07;3.72;;;18.30;99.90;;;;;;5040566;28;20088;-70
2022/08/03 02:28:35;;;;;;;9.18;3.95;;;18.30;99.90;;;;;;5032918;28;20080;-69
2022/08/03 02:31:05;;;;;;;8.73;4.18;;;18.30;99.90;;;;;;5037525;28;20128;-69
2022/08/03 02:33:37;;;;;;;10.95;4.03;;;18.30;99.90;;;;;;5043512;28;20128;-70
2022/08/03 02:36:05;;;;;;;6.75;3.45;;;18.30;99.90;;;;;;5040626;28;20547;-69
2022/08/03 02:38:34;;;;;;;13.00;3.97;;;18.20;99.90;;;;;;5043507;28;20032;-69
2022/08/03 02:41:04;;;;;;;12.18;3.60;;;18.40;99.90;;;;;;5040092;28;20574;-70
2022/08/03 02:43:32;;;;;;;8.25;3.60;;;18.30;99.90;;;;;;5039268;28;20102;-70
2022/08/03 02:45:58;;;;;;;12.27;3.75;;;18.20;99.90;;;;;;5041361;28;20405;-70
2022/08/03 02:48:27;;;;;;;11.50;3.83;;;18.30;99.90;;;;;;5044486;28;20041;-70
2022/08/03 02:50:55;;;;;;;10.23;3.70;;;18.20;99.90;;;;;;5037230;28;20056;-70
2022/08/03 02:53:22;;;;;;;9.13;3.80;;;18.20;99.90;;;;;;5037827;28;20037;-70
2022/08/03 02:55:49;;;;;;;11.65;3.85;;;18.20;99.90;;;;;;5042309;28;20056;-70
2022/08/03 02:58:20;;;;;;;7.70;3.42;;;18.20;99.90;;;;;;5042332;28;20041;-70
2022/08/03 03:00:47;;;;;;;11.63;3.60;;;18.20;99.90;;;;;;5041815;28;20068;-69
2022/08/03 03:03:13;;;;;;;8.77;3.33;;;18.10;99.90;;;;;;5042026;28;20049;-69
2022/08/03 03:05:40;;;;;;;8.10;3.45;;;18.10;99.90;;;;;;5041163;28;20135;-71
2022/08/03 03:08:08;;;;;;;10.02;3.60;;;18.10;99.90;;;;;;5038999;28;20200;-72
2022/08/03 03:10:35;;;;;;;10.93;3.85;;;18.10;99.90;;;;;;5034360;28;20412;-71
2022/08/03 03:13:05;;;;;;;9.25;3.40;;;18.10;99.90;;;;;;5033335;28;20049;-71
2022/08/03 03:15:34;;;;;;;12.25;3.58;;;18.10;99.90;;;;;;5035333;28;20033;-72
2022/08/03 03:18:01;;;;;;;7.93;3.40;;;18.20;99.90;;;;;;5030305;28;20045;-71
2022/08/03 03:20:28;;;;;;;10.32;3.70;;;18.20;99.90;;;;;;5034559;28;20048;-71
2022/08/03 03:22:54;;;;;;;9.02;3.75;;;18.20;99.90;;;;;;5034307;28;20370;-71
2022/08/03 03:25:23;;;;;;;11.25;3.60;;;18.10;99.90;;;;;;5032772;28;20042;-69
2022/08/03 03:27:49;;;;;;;9.27;3.78;;;18.10;99.90;;;;;;5034453;28;20124;-71
2022/08/03 03:30:15;;;;;;;8.93;3.55;;;18.10;99.90;;;;;;5032693;28;20080;-71
2022/08/03 03:32:41;;;;;;;8.70;3.03;;;18.10;99.90;;;;;;5035769;28;20041;-72
2022/08/03 03:35:08;;;;;;;10.07;3.28;;;18.10;99.90;;;;;;5035130;28;20084;-70
2022/08/03 03:37:34;;;;;;;9.88;3.38;;;18.20;99.90;;;;;;5033874;28;20045;-70
2022/08/03 03:39:59;;;;;;;11.95;3.25;;;18.20;99.90;;;;;;5033507;28;20049;-70
2022/08/03 03:42:25;;;;;;;10.57;3.28;;;18.20;99.90;;;;;;5036102;28;20163;-72
2022/08/03 03:44:51;;;;;;;8.55;3.58;;;18.10;99.90;;;;;;5036079;28;20037;-70
2022/08/03 03:47:17;;;;;;;11.05;4.07;;;18.20;99.90;;;;;;5040568;28;20110;-70
2022/08/03 03:49:43;;;;;;;11.35;4.28;;;18.10;99.90;;;;;;5042089;28;20041;-70
2022/08/03 03:52:09;;;;;;;11.02;3.63;;;18.10;99.90;;;;;;5037229;28;20053;-71
2022/08/03 03:54:42;;;;;;;13.88;3.78;;;18.20;99.90;;;;;;5039464;28;20052;-71
2022/08/03 03:57:09;;;;;;;9.55;3.72;;;18.10;99.90;;;;;;5035715;28;20057;-72
2022/08/03 03:59:38;;;;;;;8.45;3.80;;;18.20;99.90;;;;;;5039585;28;20396;-72
2022/08/03 04:02:05;;;;;;;9.98;3.13;;;18.20;99.90;;;;;;5041732;28;20044;-71
2022/08/03 04:12:51;;;;;;;13.00;3.85;;;18.20;99.90;;;;;;5036668;28;20041;-71
2022/08/03 04:15:21;;;;;;;9.85;3.90;;;18.20;99.90;;;;;;5042903;28;20159;-72
2022/08/03 04:17:49;;;;;;;7.57;3.60;;;18.20;99.90;;;;;;5039800;28;20401;-71
2022/08/03 04:20:19;;;;;;;11.00;4.30;;;18.10;99.90;;;;;;5042190;28;20075;-72
2022/08/03 04:22:46;;;;;;;9.45;3.78;;;18.20;99.90;;;;;;5039500;28;20037;-71
2022/08/03 04:25:16;;;;;;;10.55;3.42;;;18.20;99.90;;;;;;5042634;28;20048;-69
2022/08/03 04:27:43;;;;;;;11.25;3.42;;;18.20;99.90;;;;;;5039906;28;20041;-69
2022/08/03 04:30:10;;;;;;;11.15;3.30;;;18.20;99.90;;;;;;5039408;28;20095;-70
2022/08/03 04:32:37;;;;;;;9.23;2.80;;;18.20;99.90;;;;;;5041739;28;20120;-70
2022/08/03 04:35:05;;;;;;;9.80;3.00;;;18.20;99.90;;;;;;5037346;28;20045;-71
2022/08/03 04:37:36;;;;;;;8.02;3.45;;;18.20;99.90;;;;;;5043068;28;20041;-70
2022/08/03 04:40:07;;;;;;;8.95;3.30;;;18.30;99.90;;;;;;5039145;28;20520;-71
2022/08/03 04:42:34;;;;;;;10.20;3.63;;;18.30;99.90;;;;;;5033615;28;20033;-70
2022/08/03 04:45:00;;;;;;;10.35;3.53;;;18.30;99.90;;;;;;5042315;28;20490;-70
2022/08/03 04:47:26;;;;;;;8.13;3.30;;;18.50;99.90;;;;;;5039742;28;20056;-70
2022/08/03 04:49:52;;;;;;;10.32;3.60;;;18.40;99.90;;;;;;5038840;28;20401;-70
2022/08/03 04:52:18;;;;;;;12.95;3.70;;;18.40;99.90;;;;;;5037837;28;20072;-70
2022/08/03 04:54:45;;;;;;;10.88;3.58;;;18.50;99.90;;;;;;5036015;28;20569;-71
2022/08/03 04:57:11;;;;;;;13.85;4.18;;;18.50;99.90;;;;;;5045137;28;20420;-71
2022/08/03 04:59:37;;;;;;;11.90;4.20;;;18.50;99.90;;;;;;5042488;28;20042;-70
2022/08/03 05:02:03;;;;;;;12.15;3.95;;;18.50;99.90;;;;;;5045988;28;20033;-71
2022/08/03 05:04:29;;;;;;;10.18;3.42;;;18.70;99.90;;;;;;5038418;28;20096;-71
2022/08/03 05:06:55;;;;;;;11.82;3.58;;;18.60;99.90;;;;;;5046573;28;20068;-71
2022/08/03 05:09:21;;;;;;;11.55;3.33;;;18.70;99.90;;;;;;5042213;28;20045;-70
2022/08/03 05:11:49;;;;;;;8.35;3.10;;;18.70;99.90;;;;;;5045508;28;20128;-71
2022/08/03 05:14:15;;;;;;;7.95;3.15;;;19.00;99.90;;;;;;5038813;28;20112;-71
2022/08/03 05:16:41;;;;;;;12.80;3.28;;;18.80;99.90;;;;;;5036255;28;20488;-71
2022/08/03 05:19:06;;;;;;;10.35;3.30;;;18.80;99.90;;;;;;5036199;28;20034;-71
2022/08/03 05:21:33;;;;;;;11.13;3.60;;;18.90;99.90;;;;;;5035656;28;20099;-71
2022/08/03 05:23:58;;;;;;;14.15;3.70;;;19.10;99.90;;;;;;5036143;28;20048;-71
2022/08/03 05:26:27;;;;;;;11.60;3.78;;;19.10;99.90;;;;;;5037083;28;20116;-70
2022/08/03 05:28:53;;;;;;;12.85;4.13;;;19.10;99.90;;;;;;5042921;28;20041;-70
2022/08/03 05:31:18;;;;;;;13.18;3.55;;;19.00;99.90;;;;;;5043309;28;20049;-70
2022/08/03 05:33:44;;;;;;;12.70;3.40;;;19.10;99.90;;;;;;5044378;28;20472;-71
2022/08/03 05:36:09;;;;;;;10.48;3.30;;;19.10;99.90;;;;;;5036770;28;20096;-70
2022/08/03 05:38:35;;;;;;;10.75;3.45;;;19.20;99.90;;;;;;5043408;28;20366;-70
2022/08/03 05:41:02;;;;;;;8.93;3.70;;;19.30;99.90;;;;;;5045388;28;20125;-70
2022/08/03 05:43:28;;;;;;;15.80;3.58;;;19.30;99.90;;;;;;5037019;28;20047;-71
2022/08/03 05:45:54;;;;;;;14.05;3.47;;;19.40;99.90;;;;;;5043732;28;20048;-71
2022/08/03 05:48:19;;;;;;;11.05;3.15;;;19.40;99.90;;;;;;5041304;28;20397;-71
2022/08/03 05:50:45;;;;;;;12.75;3.50;;;19.40;99.90;;;;;;5043241;28;20049;-71
2022/08/03 05:53:11;;;;;;;11.45;3.25;;;19.50;99.90;;;;;;5041953;28;20064;-70
2022/08/03 05:55:36;;;;;;;10.68;3.60;;;19.60;99.90;;;;;;5044482;28;20069;-71
2022/08/03 05:58:02;;;;;;;9.80;3.67;;;19.60;99.90;;;;;;5040290;28;20060;-71
2022/08/03 06:00:28;;;;;;;12.75;3.55;;;19.60;99.90;;;;;;5043681;28;20033;-71
2022/08/03 06:02:54;;;;;;;13.07;3.90;;;19.70;99.90;;;;;;5042169;28;20045;-71
2022/08/03 06:05:19;;;;;;;11.02;2.90;;;19.90;99.90;;;;;;5043776;28;20913;-71
2022/08/03 06:07:45;;;;;;;10.52;3.50;;;20.00;99.90;;;;;;5040770;28;20133;-71
2022/08/03 06:10:11;;;;;;;11.10;3.42;;;20.00;99.90;;;;;;5042894;28;20051;-71
2022/08/03 06:12:39;;;;;;;13.82;3.80;;;20.10;99.90;;;;;;5042553;28;20041;-71
2022/08/03 06:15:06;;;;;;;10.93;3.53;;;20.20;99.90;;;;;;5043623;28;20452;-71
2022/08/03 06:17:31;;;;;;;13.70;4.13;;;20.20;99.90;;;;;;5042850;28;20489;-72
2022/08/03 06:19:57;;;;;;;11.10;3.53;;;20.10;99.90;;;;;;5041986;28;20075;-71
2022/08/03 06:22:23;;;;;;;17.13;4.57;;;20.10;99.90;;;;;;5038876;28;20103;-71
2022/08/03 06:24:48;;;;;;;15.88;3.58;;;20.10;99.90;;;;;;5031870;28;20477;-71
2022/08/03 06:27:14;;;;;;;14.40;3.95;;;20.30;99.90;;;;;;5036327;28;20045;-71
2022/08/03 06:29:40;;;;;;;9.82;3.63;;;20.30;99.90;;;;;;5043615;28;20050;-71
2022/08/03 06:32:05;;;;;;;12.48;4.10;;;20.50;99.90;;;;;;5038574;28;20409;-71
2022/08/03 06:34:31;;;;;;;13.13;3.70;;;20.60;99.90;;;;;;5042004;28;20036;-70
2022/08/03 06:36:57;;;;;;;13.00;3.90;;;20.70;99.90;;;;;;5036509;28;20437;-71
2022/08/03 06:39:23;;;;;;;15.75;4.18;;;20.90;99.90;;;;;;5035086;28;20041;-71
2022/08/03 06:41:48;;;;;;;15.40;4.78;;;21.10;99.90;;;;;;5035419;28;20048;-72
2022/08/03 06:44:14;;;;;;;13.15;3.80;;;21.20;99.90;;;;;;5040239;28;20079;-72
2022/08/03 06:46:39;;;;;;;11.43;4.22;;;21.20;99.90;;;;;;5044974;28;20048;-71
2022/08/03 06:49:06;;;;;;;13.48;4.35;;;21.20;99.90;;;;;;5036935;28;20045;-72
2022/08/03 06:51:31;;;;;;;10.32;3.97;;;21.30;99.90;;;;;;5040313;28;20045;-72
2022/08/03 06:53:57;;;;;;;13.70;4.68;;;21.30;99.90;;;;;;5039730;28;20044;-72
2022/08/03 06:56:23;;;;;;;11.82;4.13;;;21.40;99.90;;;;;;5040200;28;20133;-75
2022/08/03 06:58:48;;;;;;;16.80;4.57;;;21.50;99.90;;;;;;5043365;28;20040;-68
2022/08/03 07:01:14;;;;;;;13.38;4.15;;;21.60;99.90;;;;;;5039618;28;20041;-68
2022/08/03 07:03:40;;;;;;;13.40;4.25;;;21.70;99.90;;;;;;5043450;28;20033;-73
2022/08/03 07:06:06;;;;;;;15.25;3.80;;;21.60;99.90;;;;;;5040485;28;20057;-72
2022/08/03 07:08:32;;;;;;;13.07;3.65;;;21.70;99.90;;;;;;5042037;28;20025;-73
2022/08/03 07:10:57;;;;;;;17.08;4.10;;;21.70;99.90;;;;;;5040252;28;20106;-73
2022/08/03 07:13:23;;;;;;;16.80;4.00;;;21.70;99.90;;;;;;5041483;28;20087;-73
2022/08/03 07:15:48;;;;;;;11.15;3.63;;;21.70;99.90;;;;;;5042560;28;20063;-71
2022/08/03 07:18:14;;;;;;;14.40;4.20;;;21.80;99.90;;;;;;5041409;28;20048;-69
2022/08/03 07:20:40;;;;;;;9.82;3.97;;;21.90;99.90;;;;;;5040818;28;20119;-69
2022/08/03 07:23:05;;;;;;;15.82;4.38;;;22.00;99.90;;;;;;5043208;28;20444;-68
2022/08/03 07:25:31;;;;;;;12.05;4.00;;;22.00;99.90;;;;;;5039972;28;20038;-70
2022/08/03 07:27:57;;;;;;;16.90;3.60;;;22.20;99.90;;;;;;5041455;28;20073;-69
2022/08/03 07:30:22;;;;;;;13.23;3.55;;;22.30;99.90;;;;;;5041475;28;20041;-71
2022/08/03 07:32:48;;;;;;;15.32;4.82;;;22.50;99.90;;;;;;5040484;28;20041;-71
2022/08/03 07:35:14;;;;;;;11.05;4.15;;;22.60;99.90;;;;;;5043114;28;20084;-70
2022/08/03 07:37:39;;;;;;;13.02;3.97;;;22.80;99.90;;;;;;5035470;28;20049;-70
2022/08/03 07:40:05;;;;;;;11.93;4.20;;;23.30;99.90;;;;;;5042169;28;20044;-72
2022/08/03 07:42:31;;;;;;;13.48;4.80;;;23.70;99.90;;;;;;5039380;28;20087;-71
2022/08/03 07:44:58;;;;;;;18.70;4.95;;;24.00;99.90;;;;;;5041104;28;20135;-70
2022/08/03 07:47:27;;;;;;;13.30;4.68;;;24.30;99.90;;;;;;5040060;28;20029;-72
2022/08/03 07:49:52;;;;;;;14.73;5.00;;;24.20;99.90;;;;;;5042476;28;20077;-75
2022/08/03 07:55:05;;;;;;;14.27;5.50;;;24.90;99.90;;;;;;5036462;28;20041;-73
2022/08/03 07:57:31;;;;;;;15.07;5.22;;;25.20;99.90;;;;;;5035290;28;20470;-72
2022/08/03 07:59:56;;;;;;;15.07;4.88;;;25.20;99.90;;;;;;5041728;28;20131;-74
2022/08/03 08:02:22;;;;;;;16.67;5.32;;;25.60;99.90;;;;;;5039599;28;20543;-72
2022/08/03 08:04:47;;;;;;;17.17;5.07;;;26.20;99.90;;;;;;5040003;28;20080;-72
2022/08/03 08:07:13;;;;;;;13.70;4.78;;;27.10;99.90;;;;;;5038170;28;20053;-72
2022/08/03 08:09:42;;;;;;;13.57;4.75;;;27.70;99.90;;;;;;5039696;28;20048;-75
2022/08/03 08:12:08;;;;;;;14.20;4.72;;;28.00;99.90;;;;;;5039860;28;20053;-77
2022/08/03 08:14:34;;;;;;;15.80;4.80;;;28.40;99.90;;;;;;5039099;28;20435;-73
2022/08/03 08:17:00;;;;;;;12.73;4.93;;;28.50;99.90;;;;;;5042965;28;20476;-74
2022/08/03 08:19:26;;;;;;;14.57;4.55;;;28.30;99.90;;;;;;5034160;28;20072;-72
2022/08/03 08:21:51;;;;;;;15.07;4.97;;;28.10;99.90;;;;;;5039312;28;20049;-70
2022/08/03 08:24:17;;;;;;;11.30;5.00;;;28.30;99.90;;;;;;5042253;28;20477;-70
2022/08/03 08:26:43;;;;;;;14.60;5.30;;;28.40;99.90;;;;;;5039968;28;20037;-69
2022/08/03 08:29:08;;;;;;;12.20;4.95;;;28.70;99.90;;;;;;5031419;28;20048;-68
2022/08/03 08:31:34;;;;;;;13.70;4.35;;;29.00;99.90;;;;;;5025505;28;20045;-68
2022/08/03 08:34:04;;;;;;;16.23;5.15;;;29.20;99.90;;;;;;5037539;28;20045;-70
2022/08/03 08:36:33;;;;;;;11.85;4.85;;;29.40;99.90;;;;;;5036537;28;20037;-70
2022/08/03 08:38:59;;;;;;;15.57;4.68;;;29.60;99.90;;;;;;5036684;28;20041;-69
2022/08/03 08:41:25;;;;;;;15.32;4.53;;;29.90;99.00;;;;;;5039647;28;20128;-70
2022/08/03 08:43:51;;;;;;;13.77;4.88;;;29.70;99.50;;;;;;5037071;28;20117;-70
2022/08/03 08:46:18;;;;;;;10.68;5.45;;;29.80;99.90;;;;;;5043431;28;20092;-70
2022/08/03 08:48:48;;;;;;;15.00;5.47;;;29.90;99.30;;;;;;5034151;28;20421;-72
2022/08/03 08:51:18;;;;;;;14.38;5.88;;;29.60;99.90;;;;;;5038595;28;20051;-71
2022/08/03 08:53:46;;;;;;;11.80;5.93;;;29.90;99.20;;;;;;5034360;28;20493;-70
2022/08/03 08:56:15;;;;;;;12.77;5.70;;;30.10;98.50;;;;;;5038180;28;20065;-70
2022/08/03 08:58:46;;;;;;;12.75;5.00;;;29.80;99.20;;;;;;5037601;28;20052;-69
2022/08/03 09:01:12;;;;;;;14.18;6.22;;;29.80;98.90;;;;;;5036608;28;20471;-70
2022/08/03 09:03:38;;;;;;;15.32;5.93;;;29.90;98.80;;;;;;5036048;28;20129;-74
2022/08/03 09:06:03;;;;;;;12.57;5.13;;;29.90;98.40;;;;;;5035308;28;20507;-75
2022/08/03 09:08:31;;;;;;;13.35;4.97;;;29.70;99.10;;;;;;5038471;28;20064;-75
2022/08/03 09:10:56;;;;;;;14.73;5.55;;;29.20;99.00;;;;;;5034165;28;20049;-76
2022/08/03 09:13:22;;;;;;;12.98;5.25;;;29.60;99.20;;;;;;5037336;28;20091;-73
2022/08/03 09:16:07;;;;;;;12.38;5.35;;;29.80;98.70;;;;;;5038591;28;20144;-73
2022/08/03 09:18:33;;;;;;;11.50;5.32;;;29.70;98.80;;;;;;5036532;28;20069;-75
2022/08/03 09:21:20;;;;;;;14.07;6.03;;;29.80;99.20;;;;;;5035228;28;20516;-75
2022/08/03 09:23:56;;;;;;;13.05;5.50;;;29.80;98.80;;;;;;5032515;28;20618;-75
2022/08/03 09:26:27;;;;;;;13.57;5.60;;;29.50;98.90;;;;;;5036859;28;20489;-74
2022/08/03 09:29:03;;;;;;;15.98;6.03;;;28.90;99.20;;;;;;5034880;28;20041;-76
2022/08/03 09:31:29;;;;;;;14.00;5.85;;;28.80;99.80;;;;;;5038098;28;20041;-77
2022/08/03 09:33:58;;;;;;;13.73;5.45;;;28.80;99.50;;;;;;5036391;28;20068;-73
2022/08/03 09:36:54;;;;;;;16.45;5.88;;;29.10;99.60;;;;;;5037824;28;20041;-76
2022/08/03 09:39:25;;;;;;;13.27;5.10;;;28.60;99.60;;;;;;5026284;28;20049;-76
2022/08/03 09:42:23;;;;;;;13.77;5.65;;;28.10;99.90;;;;;;5037927;28;20405;-76
2022/08/03 09:44:50;;;;;;;15.95;5.55;;;28.00;99.90;;;;;;5029094;28;20099;-76
2022/08/03 09:47:28;;;;;;;12.75;5.28;;;27.80;99.90;;;;;;5043735;28;20077;-76
2022/08/03 09:50:03;;;;;;;21.52;5.65;;;28.00;99.90;;;;;;5039661;28;20053;-75
2022/08/03 09:52:37;;;;;;;19.75;5.97;;;28.30;99.90;;;;;;5040089;28;20048;-76
2022/08/03 09:55:11;;;;;;;13.00;5.70;;;28.10;99.90;;;;;;5041790;28;20124;-74
2022/08/03 09:57:37;;;;;;;15.90;6.60;;;28.30;99.90;;;;;;5040129;28;20574;-76
2022/08/03 10:00:15;;;;;;;15.18;6.13;;;28.10;99.90;;;;;;5041259;28;20045;-74
2022/08/03 10:02:42;;;;;;;14.73;5.82;;;27.70;99.90;;;;;;5037146;28;20808;-74
2022/08/03 10:05:11;;;;;;;18.10;6.72;;;27.70;99.90;;;;;;5039335;28;20543;-73
2022/08/03 10:07:45;;;;;;;15.15;5.90;;;27.90;99.90;;;;;;5042023;28;20046;-72
2022/08/03 10:10:11;;;;;;;12.45;5.60;;;28.20;99.90;;;;;;5038281;28;20040;-73
2022/08/03 10:12:38;;;;;;;16.08;5.90;;;28.40;99.90;;;;;;5037191;28;20052;-75
2022/08/03 10:15:04;;;;;;;13.95;6.03;;;28.30;99.90;;;;;;5041422;28;20033;-71
2022/08/03 10:17:30;;;;;;;14.77;5.53;;;28.50;99.90;;;;;;5043427;28;20049;-77
2022/08/03 10:19:57;;;;;;;16.20;6.22;;;28.80;99.90;;;;;;5040224;28;20049;-77
2022/08/03 10:22:26;;;;;;;10.73;5.57;;;29.10;99.90;;;;;;5044254;28;20493;-73
2022/08/03 10:24:59;;;;;;;17.20;5.63;;;28.80;99.90;;;;;;5034054;28;20049;-73
2022/08/03 10:27:31;;;;;;;15.30;6.05;;;28.20;99.90;;;;;;5034713;28;20044;-78
2022/08/03 10:30:02;;;;;;;16.17;6.75;;;28.10;99.90;;;;;;5036554;28;20053;-74
2022/08/03 10:32:32;;;;;;;16.27;6.05;;;27.60;99.90;;;;;;5035373;28;20037;-75
2022/08/03 10:35:12;;;;;;;14.75;6.50;;;27.60;99.90;;;;;;5040948;28;20090;-73
2022/08/03 10:37:43;;;;;;;17.02;6.10;;;27.40;99.90;;;;;;5035761;28;20048;-74
2022/08/03 10:40:14;;;;;;;17.67;6.60;;;27.30;99.90;;;;;;5038103;28;20436;-74
2022/08/03 10:42:43;;;;;;;15.90;6.82;;;27.10;99.90;;;;;;5040021;28;20045;-75
2022/08/03 10:45:16;;;;;;;20.85;6.57;;;27.10;99.90;;;;;;5038917;28;20432;-76
2022/08/03 10:47:43;;;;;;;18.17;6.70;;;26.70;99.90;;;;;;5041405;28;20069;-74
2022/08/03 10:50:10;;;;;;;15.60;6.25;;;26.50;99.90;;;;;;5038758;28;20037;-75
2022/08/03 10:52:52;;;;;;;13.52;6.35;;;26.30;99.90;;;;;;5039678;28;20144;-74
2022/08/03 10:58:37;;;;;;;15.65;4.90;;;26.70;99.90;;;;;;5032416;28;20141;-77
2022/08/03 11:01:10;;;;;;;15.30;4.55;;;26.60;99.90;;;;;;5038856;28;20053;-73
2022/08/03 11:03:51;;;;;;;14.35;4.80;;;26.60;99.90;;;;;;5034886;28;20791;-73
2022/08/03 11:06:21;;;;;;;17.60;4.75;;;26.60;99.90;;;;;;5033570;28;20038;-74
2022/08/03 11:08:48;;;;;;;15.48;4.88;;;26.50;99.90;;;;;;5031838;28;20037;-75
2022/08/03 11:11:17;;;;;;;13.40;4.82;;;26.40;99.90;;;;;;5033273;28;20052;-76
2022/08/03 11:14:17;;;;;;;15.55;5.30;;;26.50;99.90;;;;;;5030164;28;20042;-74
2022/08/03 11:16:49;;;;;;;18.13;5.43;;;26.70;99.90;;;;;;5016354;28;20111;-76
2022/08/03 11:19:22;;;;;;;15.57;4.90;;;26.70;99.90;;;;;;5041754;28;20041;-78
2022/08/03 11:24:35;;;;;;;16.13;4.72;;;27.10;99.90;;;;;;5043471;28;20123;-72
2022/08/03 11:27:13;;;;;;;16.52;4.63;;;27.50;99.90;;;;;;5035840;28;20038;-72
2022/08/03 11:29:52;;;;;;;12.35;4.50;;;27.70;99.90;;;;;;5035520;28;20107;-73
2022/08/03 11:32:36;;;;;;;15.40;4.10;;;27.60;99.90;;;;;;5035180;28;20137;-72
2022/08/03 11:35:11;;;;;;;18.05;4.65;;;28.00;99.90;;;;;;5038069;28;20045;-74
2022/08/03 11:37:56;;;;;;;13.75;4.03;;;28.40;99.90;;;;;;5038080;28;20087;-75
2022/08/03 11:40:44;;;;;;;17.15;4.72;;;28.80;99.90;;;;;;5035231;28;20057;-76
2022/08/03 11:43:29;;;;;;;11.85;3.72;;;28.80;99.90;;;;;;5042725;28;20052;-71
2022/08/03 11:46:05;;;;;;;14.02;4.03;;;28.80;99.90;;;;;;5038409;28;20556;-72
2022/08/03 11:48:36;;;;;;;;;;;28.80;99.90;;;;;;5038384;28;20120;-76
2022/08/03 11:51:06;;;;;;;15.65;4.38;;;28.70;99.90;;;;;;5036701;28;19921;-71
2022/08/03 11:53:33;;;;;;;15.68;3.92;;;28.70;99.90;;;;;;5039374;28;20171;-73
2022/08/03 11:56:00;;;;;;;13.25;3.78;;;28.70;99.90;;;;;;5039196;28;20485;-70
2022/08/03 11:58:26;;;;;;;13.57;4.28;;;29.10;99.90;;;;;;5038926;28;20406;-72
2022/08/03 12:01:07;;;;;;;13.45;4.28;;;29.40;99.90;;;;;;5033975;28;20172;-71
2022/08/03 12:03:33;;;;;;;13.65;4.13;;;29.60;99.90;;;;;;5035894;28;20041;-72
2022/08/03 12:06:03;;;;;;;15.40;4.75;;;29.60;99.60;;;;;;5037218;28;20045;-74
2022/08/03 12:08:33;;;;;;;12.73;4.40;;;29.70;99.20;;;;;;5038615;28;20060;-74
2022/08/03 12:11:00;;;;;;;15.13;3.97;;;29.80;99.50;;;;;;5035540;28;20037;-70
2022/08/03 12:13:34;;;;;;;13.98;3.97;;;29.60;99.70;;;;;;5037720;28;20041;-76
2022/08/03 12:16:01;;;;;;;12.50;3.70;;;29.50;98.90;;;;;;5037430;28;20056;-79
2022/08/03 12:18:26;;;;;;;13.48;4.30;;;29.40;99.70;;;;;;5036927;28;20044;-75
2022/08/03 12:21:06;;;;;;;20.15;3.95;;;29.40;99.70;;;;;;5038160;28;20477;-76
2022/08/03 12:23:34;;;;;;;13.07;3.80;;;29.80;99.10;;;;;;5036096;28;20042;-75
2022/08/03 12:26:09;;;;;;;13.85;3.85;;;29.80;99.30;;;;;;5037740;28;20145;-73
2022/08/03 12:28:36;;;;;;;13.05;3.80;;;29.80;98.80;;;;;;5039320;28;20033;-74
2022/08/03 12:31:05;;;;;;;13.38;4.22;;;29.60;99.20;;;;;;5035761;28;20041;-73
2022/08/03 12:33:31;;;;;;;11.82;4.07;;;29.60;99.20;;;;;;5036711;28;20478;-74
2022/08/03 12:36:08;;;;;;;13.23;3.55;;;29.70;98.70;;;;;;5037424;28;20519;-74
2022/08/03 12:38:41;;;;;;;11.50;3.78;;;29.80;98.80;;;;;;5038876;28;20045;-78
2022/08/03 12:41:12;;;;;;;12.10;3.80;;;30.00;98.80;;;;;;5038356;28;20689;-71
2022/08/03 12:43:49;;;;;;;11.48;3.90;;;29.70;98.80;;;;;;5037112;28;20121;-72
2022/08/03 12:46:18;;;;;;;9.30;3.85;;;29.90;99.00;;;;;;5039587;28;20025;-73
2022/08/03 12:49:03;;;;;;;14.35;4.63;;;30.00;99.00;;;;;;5034543;28;20037;-72
2022/08/03 12:51:31;;;;;;;17.60;3.95;;;30.00;98.80;;;;;;5034724;28;20049;-72
2022/08/03 12:53:58;;;;;;;17.13;3.67;;;30.10;99.10;;;;;;5034747;28;20404;-72
2022/08/03 12:56:24;;;;;;;8.63;3.30;;;30.00;98.80;;;;;;5038767;28;20056;-74
2022/08/03 12:58:50;;;;;;;9.95;3.70;;;29.90;98.70;;;;;;5034691;28;20176;-73
2022/08/03 13:01:16;;;;;;;11.80;4.00;;;29.80;98.60;;;;;;5038674;28;20137;-74
2022/08/03 13:03:44;;;;;;;9.43;3.70;;;29.80;98.60;;;;;;5037450;28;20040;-70